Time;durP1;ratioP1;P1;durP2;ratioP2;P2;SDS_P1;SDS_P2;PMS_P1;PMS_P2;Temp;Humidity;BMP_temperature;BMP_pressure;BME280_temperature;BME280_humidity;BME280_pressure;Samples;Min_cycle;Max_cycle;Signal;HPM_P1;HPM_P2
2021/05/19 00:00:52;;;;;;;1.40;1.30;;;;;;;;;;5109503;28;20102;-65
2021/05/19 00:03:17;;;;;;;1.38;1.17;;;;;;;;;;5094937;28;20107;-65
2021/05/19 00:05:42;;;;;;;1.77;0.90;;;;;;;;;;5102841;28;20083;-65
2021/05/19 00:08:08;;;;;;;1.40;1.10;;;;;;;;;;5114108;28;20020;-65
2021/05/19 00:10:33;;;;;;;2.83;1.00;;;;;;;;;;5105518;28;20022;-66
2021/05/19 00:12:59;;;;;;;1.73;1.55;;;;;;;;;;5107172;28;20057;-65
2021/05/19 00:15:24;;;;;;;2.47;1.48;;;;;;;;;;5099900;28;20485;-65
2021/05/19 00:17:49;;;;;;;2.47;1.52;;;;;;;;;;5107172;28;20542;-65
2021/05/19 00:20:16;;;;;;;1.02;0.75;;;;;;;;;;5098406;28;20471;-65
2021/05/19 00:22:41;;;;;;;1.70;1.23;;;;;;;;;;5096179;28;20008;-65
2021/05/19 00:25:07;;;;;;;1.48;1.38;;;;;;;;;;5104779;28;20023;-65
2021/05/19 00:27:32;;;;;;;1.88;1.77;;;;;;;;;;5113905;28;20098;-65
2021/05/19 00:29:58;;;;;;;2.88;1.80;;;;;;;;;;5103921;28;20056;-65
2021/05/19 00:32:23;;;;;;;2.10;1.48;;;;;;;;;;5093489;28;20024;-65
2021/05/19 00:34:48;;;;;;;1.70;1.55;;;;;;;;;;5109529;28;20023;-65
2021/05/19 00:37:17;;;;;;;1.75;1.65;;;;;;;;;;5107841;28;20058;-65
2021/05/19 00:39:46;;;;;;;3.00;1.80;;;;;;;;;;5103366;28;20027;-65
2021/05/19 00:42:11;;;;;;;2.70;1.70;;;;;;;;;;5100860;28;20024;-65
2021/05/19 00:44:37;;;;;;;2.60;1.95;;;;;;;;;;5089783;28;20024;-65
2021/05/19 00:47:02;;;;;;;2.28;1.15;;;;;;;;;;5112898;28;20041;-65
2021/05/19 00:49:27;;;;;;;3.15;2.85;;;;;;;;;;5112723;28;20020;-65
2021/05/19 00:51:53;;;;;;;3.50;3.03;;;;;;;;;;5110187;28;20343;-65
2021/05/19 00:54:18;;;;;;;4.40;3.10;;;;;;;;;;5101702;28;20016;-65
2021/05/19 00:56:43;;;;;;;3.50;2.72;;;;;;;;;;5101662;28;20027;-65
2021/05/19 00:59:10;;;;;;;3.63;3.33;;;;;;;;;;5113043;28;20026;-65
2021/05/19 01:01:37;;;;;;;4.60;3.85;;;;;;;;;;5094651;28;20055;-65
2021/05/19 01:04:03;;;;;;;5.80;4.30;;;;;;;;;;5106122;28;20111;-65
2021/05/19 01:06:39;;;;;;;4.47;3.78;;;;;;;;;;5096888;28;20024;-65
2021/05/19 01:11:49;;;;;;;4.57;4.10;;;;;;;;;;5110874;28;20038;-65
2021/05/19 01:14:14;;;;;;;4.88;4.43;;;;;;;;;;5091696;28;20027;-65
2021/05/19 01:16:40;;;;;;;5.10;4.60;;;;;;;;;;5107563;28;20455;-65
2021/05/19 01:19:05;;;;;;;5.50;4.50;;;;;;;;;;5103170;28;20027;-66
2021/05/19 01:21:31;;;;;;;5.45;4.70;;;;;;;;;;5111967;27;20045;-65
2021/05/19 01:23:57;;;;;;;5.90;4.72;;;;;;;;;;5095388;28;20020;-65
2021/05/19 01:26:22;;;;;;;5.50;5.00;;;;;;;;;;5095939;28;20024;-65
2021/05/19 01:28:48;;;;;;;5.82;5.15;;;;;;;;;;5092273;28;20024;-64
2021/05/19 01:31:13;;;;;;;4.90;4.28;;;;;;;;;;5110443;28;20034;-64
2021/05/19 01:33:39;;;;;;;6.90;5.85;;;;;;;;;;5095941;28;20489;-65
2021/05/19 01:36:04;;;;;;;8.43;7.10;;;;;;;;;;5095889;28;20043;-65
2021/05/19 01:38:30;;;;;;;7.07;6.38;;;;;;;;;;5094484;28;20016;-65
2021/05/19 01:40:55;;;;;;;6.95;6.25;;;;;;;;;;5104694;28;20144;-65
2021/05/19 01:43:30;;;;;;;7.88;7.07;;;;;;;;;;5111319;28;20483;-65
2021/05/19 01:45:55;;;;;;;;;;;;;;;;;;5108130;28;20032;-65
2021/05/19 01:48:22;;;;;;;7.53;6.70;;;;;;;;;;5110226;28;19911;-65
2021/05/19 01:50:48;;;;;;;7.85;6.82;;;;;;;;;;5108107;28;20024;-65
2021/05/19 01:53:13;;;;;;;8.15;7.35;;;;;;;;;;5103195;27;20018;-65
2021/05/19 01:55:38;;;;;;;9.40;7.40;;;;;;;;;;5111217;28;20035;-65
2021/05/19 01:58:04;;;;;;;7.78;7.00;;;;;;;;;;5113888;28;20446;-65
2021/05/19 02:00:30;;;;;;;8.40;7.43;;;;;;;;;;5102996;28;20020;-66
2021/05/19 02:02:59;;;;;;;8.70;6.68;;;;;;;;;;5114860;28;20370;-65
2021/05/19 02:05:25;;;;;;;7.70;6.95;;;;;;;;;;5103985;27;20486;-65
2021/05/19 02:07:51;;;;;;;9.35;8.45;;;;;;;;;;5116235;27;20054;-65
2021/05/19 02:10:16;;;;;;;9.85;8.93;;;;;;;;;;5102649;28;20093;-65
2021/05/19 02:12:41;;;;;;;10.52;9.02;;;;;;;;;;5112462;28;20053;-65
2021/05/19 02:15:07;;;;;;;10.13;9.13;;;;;;;;;;5100063;28;20020;-65
2021/05/19 02:17:32;;;;;;;9.70;8.80;;;;;;;;;;5102385;28;20027;-65
2021/05/19 02:20:07;;;;;;;11.25;9.88;;;;;;;;;;5095796;28;20406;-65
2021/05/19 02:22:32;;;;;;;12.40;9.90;;;;;;;;;;5096590;28;20383;-65
2021/05/19 02:24:58;;;;;;;11.45;10.30;;;;;;;;;;5092202;28;20012;-65
2021/05/19 02:27:23;;;;;;;12.13;10.48;;;;;;;;;;5096270;28;20092;-65
2021/05/19 02:29:54;;;;;;;12.40;11.18;;;;;;;;;;5103353;28;20180;-65
2021/05/19 02:32:20;;;;;;;11.77;10.57;;;;;;;;;;5114279;28;20509;-65
2021/05/19 02:34:45;;;;;;;13.00;11.07;;;;;;;;;;5113084;28;20049;-65
2021/05/19 02:37:10;;;;;;;13.68;10.73;;;;;;;;;;5114002;28;20016;-65
2021/05/19 02:39:36;;;;;;;12.13;10.77;;;;;;;;;;5102946;28;20024;-65
2021/05/19 02:42:01;;;;;;;12.43;11.13;;;;;;;;;;5097274;28;20031;-65
2021/05/19 02:44:26;;;;;;;13.70;12.30;;;;;;;;;;5091303;28;20076;-65
2021/05/19 02:46:51;;;;;;;13.02;11.73;;;;;;;;;;5108809;28;20015;-65
2021/05/19 02:49:17;;;;;;;14.07;11.82;;;;;;;;;;5115482;28;20024;-65
2021/05/19 02:51:42;;;;;;;12.02;10.82;;;;;;;;;;5106762;28;20020;-65
2021/05/19 02:54:08;;;;;;;14.02;12.57;;;;;;;;;;5110516;28;20016;-64
2021/05/19 02:56:33;;;;;;;11.80;10.50;;;;;;;;;;5102277;28;20020;-65
2021/05/19 02:58:58;;;;;;;12.43;11.13;;;;;;;;;;5096275;28;20103;-66
2021/05/19 03:01:24;;;;;;;13.82;11.50;;;;;;;;;;5108309;28;20059;-65
2021/05/19 03:03:49;;;;;;;12.55;9.90;;;;;;;;;;5103584;28;20019;-65
2021/05/19 03:06:15;;;;;;;10.52;9.38;;;;;;;;;;5113454;28;20110;-65
2021/05/19 03:08:40;;;;;;;10.45;9.45;;;;;;;;;;5110381;28;20047;-65
2021/05/19 03:11:05;;;;;;;9.98;8.98;;;;;;;;;;5115136;28;20102;-64
2021/05/19 03:13:31;;;;;;;10.48;9.32;;;;;;;;;;5115576;28;20024;-66
2021/05/19 03:15:57;;;;;;;11.90;9.70;;;;;;;;;;5103725;28;20103;-65
2021/05/19 03:18:22;;;;;;;12.95;9.63;;;;;;;;;;5110731;28;20027;-65
2021/05/19 03:20:47;;;;;;;10.50;9.15;;;;;;;;;;5112873;28;20111;-65
2021/05/19 03:23:13;;;;;;;10.93;9.38;;;;;;;;;;5114654;28;20501;-65
2021/05/19 03:25:38;;;;;;;11.82;10.60;;;;;;;;;;5108743;28;20091;-65
2021/05/19 03:28:04;;;;;;;12.10;10.38;;;;;;;;;;5107102;28;20119;-65
2021/05/19 03:30:29;;;;;;;13.98;11.63;;;;;;;;;;5113724;28;20052;-65
2021/05/19 03:32:55;;;;;;;12.85;11.38;;;;;;;;;;5096526;28;20549;-66
2021/05/19 03:35:20;;;;;;;11.98;10.60;;;;;;;;;;5090533;28;20039;-65
2021/05/19 03:37:45;;;;;;;14.35;12.07;;;;;;;;;;5103955;28;20115;-65
2021/05/19 03:40:12;;;;;;;14.90;12.50;;;;;;;;;;5102023;28;20031;-65
2021/05/19 03:42:37;;;;;;;14.05;12.30;;;;;;;;;;5113556;28;20072;-65
2021/05/19 03:45:06;;;;;;;14.07;12.40;;;;;;;;;;5103730;28;20106;-66
2021/05/19 03:47:31;;;;;;;15.60;12.88;;;;;;;;;;5096687;28;20058;-64
2021/05/19 03:49:57;;;;;;;16.13;13.35;;;;;;;;;;5093899;28;20024;-64
2021/05/19 03:52:22;;;;;;;15.05;13.43;;;;;;;;;;5100491;28;20077;-64
2021/05/19 03:54:47;;;;;;;15.02;13.20;;;;;;;;;;5108230;28;20019;-65
2021/05/19 03:57:12;;;;;;;16.02;13.00;;;;;;;;;;5095149;28;20016;-65
2021/05/19 03:59:37;;;;;;;13.45;11.80;;;;;;;;;;5098076;28;20027;-65
2021/05/19 04:02:03;;;;;;;15.65;12.85;;;;;;;;;;5096533;28;20128;-65
2021/05/19 04:04:29;;;;;;;15.23;11.40;;;;;;;;;;5091656;28;20418;-64
2021/05/19 04:06:54;;;;;;;13.57;10.85;;;;;;;;;;5108013;28;20043;-64
2021/05/19 04:09:19;;;;;;;11.80;9.02;;;;;;;;;;5111808;28;20104;-65
2021/05/19 04:11:45;;;;;;;5.68;4.43;;;;;;;;;;5114290;28;20103;-65
2021/05/19 04:14:10;;;;;;;12.70;9.57;;;;;;;;;;5107190;28;20067;-65
2021/05/19 04:16:36;;;;;;;13.15;10.10;;;;;;;;;;5099587;28;20012;-65
2021/05/19 04:19:02;;;;;;;11.32;9.40;;;;;;;;;;5094016;28;20015;-65
2021/05/19 04:21:28;;;;;;;12.23;9.55;;;;;;;;;;5111767;28;20028;-65
2021/05/19 04:23:53;;;;;;;12.02;9.63;;;;;;;;;;5109805;28;20271;-65
2021/05/19 04:26:18;;;;;;;15.32;9.98;;;;;;;;;;5110720;28;20028;-64
2021/05/19 04:28:44;;;;;;;12.85;10.07;;;;;;;;;;5104917;28;20027;-64
2021/05/19 04:31:10;;;;;;;14.07;10.55;;;;;;;;;;5100647;28;20032;-65
2021/05/19 04:33:35;;;;;;;12.82;9.23;;;;;;;;;;5110385;28;20114;-65
2021/05/19 04:36:00;;;;;;;11.60;8.90;;;;;;;;;;5104087;28;20028;-65
2021/05/19 04:38:25;;;;;;;13.15;10.10;;;;;;;;;;5101407;28;20091;-65
2021/05/19 04:40:51;;;;;;;12.65;10.15;;;;;;;;;;5093750;28;20145;-65
2021/05/19 04:43:17;;;;;;;14.05;9.82;;;;;;;;;;5098602;28;20016;-65
2021/05/19 04:45:42;;;;;;;12.98;9.93;;;;;;;;;;5108364;28;20031;-65
2021/05/19 04:48:07;;;;;;;12.63;10.10;;;;;;;;;;5093480;28;20035;-65
2021/05/19 04:50:33;;;;;;;13.57;10.25;;;;;;;;;;5105560;28;20038;-65
2021/05/19 04:52:58;;;;;;;12.73;9.63;;;;;;;;;;5108142;28;20367;-65
2021/05/19 04:55:24;;;;;;;11.40;10.05;;;;;;;;;;5096116;28;20030;-65
2021/05/19 04:57:49;;;;;;;12.63;10.20;;;;;;;;;;5091340;28;20054;-65
2021/05/19 05:00:15;;;;;;;10.25;8.13;;;;;;;;;;5099771;28;20059;-66
2021/05/19 05:02:40;;;;;;;10.70;9.30;;;;;;;;;;5108967;28;20069;-65
2021/05/19 05:05:10;;;;;;;9.38;7.53;;;;;;;;;;5090374;28;20046;-65
2021/05/19 05:07:36;;;;;;;12.80;10.32;;;;;;;;;;5098657;28;20031;-65
2021/05/19 05:10:03;;;;;;;11.80;10.60;;;;;;;;;;5106179;28;20020;-65
2021/05/19 05:12:28;;;;;;;13.23;11.27;;;;;;;;;;5109780;28;20015;-65
2021/05/19 05:14:53;;;;;;;13.40;10.07;;;;;;;;;;5109727;28;20035;-65
2021/05/19 05:17:18;;;;;;;11.52;10.20;;;;;;;;;;5104211;28;20023;-65
2021/05/19 05:19:44;;;;;;;12.27;10.27;;;;;;;;;;5105514;28;20482;-65
2021/05/19 05:22:09;;;;;;;12.25;10.95;;;;;;;;;;5106073;28;20363;-65
2021/05/19 05:24:34;;;;;;;12.27;10.73;;;;;;;;;;5101086;28;20470;-65
2021/05/19 05:27:00;;;;;;;14.18;11.15;;;;;;;;;;5104018;28;20430;-65
2021/05/19 05:29:25;;;;;;;14.48;10.82;;;;;;;;;;5093113;28;20519;-65
2021/05/19 05:31:50;;;;;;;12.27;10.98;;;;;;;;;;5102974;28;20058;-65
2021/05/19 05:34:16;;;;;;;13.43;11.38;;;;;;;;;;5101806;28;20023;-64
2021/05/19 05:36:41;;;;;;;11.63;9.60;;;;;;;;;;5101724;28;20047;-65
2021/05/19 05:39:06;;;;;;;13.23;11.82;;;;;;;;;;5111606;28;20027;-65
2021/05/19 05:41:31;;;;;;;13.90;12.32;;;;;;;;;;5105928;28;20344;-65
2021/05/19 05:43:56;;;;;;;10.23;8.75;;;;;;;;;;5109463;28;20019;-65
2021/05/19 05:46:22;;;;;;;14.40;12.18;;;;;;;;;;5097896;28;20467;-65
2021/05/19 05:48:47;;;;;;;12.55;10.70;;;;;;;;;;5106782;28;20490;-65
2021/05/19 05:51:12;;;;;;;12.80;11.48;;;;;;;;;;5098668;28;20032;-65
2021/05/19 05:53:37;;;;;;;9.02;7.70;;;;;;;;;;5109014;28;20438;-65
2021/05/19 05:56:03;;;;;;;13.68;11.90;;;;;;;;;;5103864;28;20020;-64
2021/05/19 05:58:28;;;;;;;15.40;13.65;;;;;;;;;;5110164;28;20015;-64
2021/05/19 06:00:53;;;;;;;15.35;13.63;;;;;;;;;;5105457;28;20031;-64
2021/05/19 06:03:19;;;;;;;18.70;15.30;;;;;;;;;;5092962;28;20020;-65
2021/05/19 06:05:44;;;;;;;14.75;13.18;;;;;;;;;;5098720;28;20019;-64
2021/05/19 06:08:09;;;;;;;16.77;13.85;;;;;;;;;;5102851;28;20489;-64
2021/05/19 06:10:35;;;;;;;19.50;17.42;;;;;;;;;;5102211;28;20032;-64
2021/05/19 06:13:00;;;;;;;22.63;18.73;;;;;;;;;;5106284;28;20035;-64
2021/05/19 06:15:25;;;;;;;17.02;13.90;;;;;;;;;;5102543;28;20034;-64
2021/05/19 06:17:51;;;;;;;13.88;11.88;;;;;;;;;;5106026;28;20110;-65
2021/05/19 06:20:16;;;;;;;23.52;20.40;;;;;;;;;;5101259;28;20040;-64
2021/05/19 06:22:41;;;;;;;17.77;15.82;;;;;;;;;;5111826;28;20027;-64
2021/05/19 06:25:07;;;;;;;14.10;12.70;;;;;;;;;;5106694;28;20019;-64
2021/05/19 06:27:32;;;;;;;11.95;10.82;;;;;;;;;;5099510;28;20028;-65
2021/05/19 06:29:57;;;;;;;11.65;10.57;;;;;;;;;;5092526;28;20044;-65
2021/05/19 06:32:23;;;;;;;5.68;5.10;;;;;;;;;;5106317;28;20194;-65
2021/05/19 06:34:48;;;;;;;6.25;5.65;;;;;;;;;;5095800;28;20103;-64
2021/05/19 06:37:13;;;;;;;3.25;2.85;;;;;;;;;;5099572;28;20045;-65
2021/05/19 06:39:38;;;;;;;5.15;4.20;;;;;;;;;;5101707;28;20016;-64
2021/05/19 06:42:04;;;;;;;4.28;3.88;;;;;;;;;;5100732;28;20016;-65
2021/05/19 06:44:29;;;;;;;5.22;3.45;;;;;;;;;;5091235;28;20051;-65
2021/05/19 06:46:55;;;;;;;2.20;1.05;;;;;;;;;;5101305;28;20052;-65
2021/05/19 06:49:20;;;;;;;2.33;1.02;;;;;;;;;;5097140;28;20016;-65
2021/05/19 06:51:46;;;;;;;2.10;1.42;;;;;;;;;;5115004;28;20027;-65
2021/05/19 06:54:11;;;;;;;2.08;1.25;;;;;;;;;;5098317;28;20020;-65
2021/05/19 06:56:38;;;;;;;2.45;1.50;;;;;;;;;;5102923;28;20028;-65
2021/05/19 06:59:03;;;;;;;0.70;0.70;;;;;;;;;;5107333;28;20050;-65
2021/05/19 07:01:28;;;;;;;1.30;0.30;;;;;;;;;;5099602;28;20431;-65
2021/05/19 07:03:54;;;;;;;1.15;0.80;;;;;;;;;;5104598;28;20015;-65
2021/05/19 07:06:20;;;;;;;1.00;0.65;;;;;;;;;;5107271;28;20024;-65
2021/05/19 07:08:45;;;;;;;1.45;1.00;;;;;;;;;;5102640;28;20051;-64
2021/05/19 07:11:11;;;;;;;2.35;1.17;;;;;;;;;;5101797;28;20067;-64
2021/05/19 07:13:36;;;;;;;2.80;1.50;;;;;;;;;;5107161;28;20024;-64
2021/05/19 07:16:02;;;;;;;2.15;1.42;;;;;;;;;;5106803;28;20185;-64
2021/05/19 07:18:27;;;;;;;1.38;0.98;;;;;;;;;;5110296;28;20024;-64
2021/05/19 07:20:53;;;;;;;3.78;1.70;;;;;;;;;;5109033;28;20026;-65
2021/05/19 07:23:18;;;;;;;1.73;1.17;;;;;;;;;;5103775;28;20023;-65
2021/05/19 07:25:43;;;;;;;2.45;2.00;;;;;;;;;;5105189;28;20021;-64
2021/05/19 07:28:09;;;;;;;4.20;2.38;;;;;;;;;;5110971;28;20022;-65
2021/05/19 07:30:35;;;;;;;2.13;1.83;;;;;;;;;;5106648;28;20052;-64
2021/05/19 07:33:00;;;;;;;2.33;1.90;;;;;;;;;;5108229;28;20436;-65
2021/05/19 07:35:26;;;;;;;5.53;1.58;;;;;;;;;;5108262;28;20030;-65
2021/05/19 07:37:52;;;;;;;4.28;2.47;;;;;;;;;;5112364;28;20027;-65
2021/05/19 07:40:17;;;;;;;2.10;1.85;;;;;;;;;;5112185;28;20031;-65
2021/05/19 07:42:43;;;;;;;3.30;2.85;;;;;;;;;;5107449;28;20016;-65
2021/05/19 07:45:09;;;;;;;3.70;3.22;;;;;;;;;;5099369;28;20052;-65
2021/05/19 07:47:34;;;;;;;12.98;3.40;;;;;;;;;;5107760;28;20066;-65
2021/05/19 07:49:59;;;;;;;4.72;2.67;;;;;;;;;;5112934;28;20028;-65
2021/05/19 07:52:25;;;;;;;3.17;2.55;;;;;;;;;;5103174;28;20115;-65
2021/05/19 07:54:50;;;;;;;3.40;2.60;;;;;;;;;;5098121;28;20527;-65
2021/05/19 07:57:39;;;;;;;5.22;3.67;;;;;;;;;;5109615;28;20068;-65
2021/05/19 08:00:17;;;;;;;5.13;3.58;;;;;;;;;;5113366;28;20024;-65
2021/05/19 08:02:43;;;;;;;3.83;3.53;;;;;;;;;;5107154;28;20370;-65
2021/05/19 08:05:08;;;;;;;3.75;3.45;;;;;;;;;;5104671;28;20028;-65
2021/05/19 08:07:33;;;;;;;5.30;3.80;;;;;;;;;;5099865;28;20062;-65
2021/05/19 08:09:59;;;;;;;4.25;3.85;;;;;;;;;;5094944;28;20020;-65
2021/05/19 08:12:24;;;;;;;4.55;4.10;;;;;;;;;;5104377;28;20110;-65
2021/05/19 08:14:49;;;;;;;4.40;3.97;;;;;;;;;;5109357;28;20352;-65
2021/05/19 08:17:17;;;;;;;4.18;3.78;;;;;;;;;;5105068;28;20024;-65
2021/05/19 08:19:42;;;;;;;4.07;3.78;;;;;;;;;;5097044;28;20081;-65
2021/05/19 08:22:11;;;;;;;4.90;3.92;;;;;;;;;;5099802;28;20028;-65
2021/05/19 08:24:37;;;;;;;4.20;3.88;;;;;;;;;;5090389;28;20027;-65
2021/05/19 08:27:02;;;;;;;4.30;3.90;;;;;;;;;;5106931;28;20011;-66
2021/05/19 08:29:27;;;;;;;5.45;4.75;;;;;;;;;;5113189;28;20044;-65
2021/05/19 08:31:52;;;;;;;5.43;4.90;;;;;;;;;;5099819;28;20031;-65
2021/05/19 08:34:18;;;;;;;5.63;5.13;;;;;;;;;;5108238;28;20023;-65
2021/05/19 08:36:43;;;;;;;6.75;6.15;;;;;;;;;;5093522;28;20043;-64
2021/05/19 08:39:08;;;;;;;6.18;5.68;;;;;;;;;;5093485;28;20464;-65
2021/05/19 08:41:34;;;;;;;7.15;6.40;;;;;;;;;;5110005;28;20019;-64
2021/05/19 08:43:59;;;;;;;6.30;5.70;;;;;;;;;;5102758;28;20048;-64
2021/05/19 08:46:24;;;;;;;8.50;7.63;;;;;;;;;;5111733;28;20058;-65
2021/05/19 08:49:01;;;;;;;8.15;7.35;;;;;;;;;;5112159;28;20076;-65
2021/05/19 08:51:26;;;;;;;10.00;8.95;;;;;;;;;;5103347;28;20017;-65
2021/05/19 08:53:52;;;;;;;10.60;9.60;;;;;;;;;;5109250;28;20397;-65
2021/05/19 08:56:17;;;;;;;12.68;10.65;;;;;;;;;;5109984;28;20103;-65
2021/05/19 08:58:42;;;;;;;11.13;9.50;;;;;;;;;;5112190;28;20484;-64
2021/05/19 09:01:07;;;;;;;9.88;8.88;;;;;;;;;;5100449;28;20492;-64
2021/05/19 09:03:34;;;;;;;8.80;7.95;;;;;;;;;;5097374;28;20539;-64
2021/05/19 09:06:00;;;;;;;12.75;11.55;;;;;;;;;;5102064;28;20058;-64
2021/05/19 09:08:25;;;;;;;10.80;9.80;;;;;;;;;;5108035;28;20016;-65
2021/05/19 09:10:58;;;;;;;11.85;10.65;;;;;;;;;;5095278;28;20435;-65
2021/05/19 09:13:37;;;;;;;13.82;12.52;;;;;;;;;;5095213;28;20406;-64
2021/05/19 09:16:03;;;;;;;15.02;12.98;;;;;;;;;;5109094;28;20023;-65
2021/05/19 09:18:44;;;;;;;14.82;13.43;;;;;;;;;;5109353;28;20031;-64
2021/05/19 09:21:10;;;;;;;14.05;12.70;;;;;;;;;;5106938;28;20024;-64
2021/05/19 09:23:50;;;;;;;14.73;13.32;;;;;;;;;;5095120;28;20031;-64
2021/05/19 09:26:15;;;;;;;14.13;12.75;;;;;;;;;;5105755;28;20054;-64
2021/05/19 09:28:40;;;;;;;14.20;12.85;;;;;;;;;;5100867;28;20050;-64
2021/05/19 09:31:18;;;;;;;14.57;13.18;;;;;;;;;;5109234;28;20119;-64
2021/05/19 09:33:43;;;;;;;16.45;13.77;;;;;;;;;;5097274;28;20024;-64
2021/05/19 09:36:24;;;;;;;15.95;14.45;;;;;;;;;;5101028;28;20028;-64
2021/05/19 09:38:52;;;;;;;13.93;12.43;;;;;;;;;;5090649;28;20372;-64
2021/05/19 09:41:24;;;;;;;12.55;11.45;;;;;;;;;;5091061;28;20409;-64
2021/05/19 09:43:53;;;;;;;14.13;12.73;;;;;;;;;;5098123;28;20008;-64
2021/05/19 09:46:22;;;;;;;11.20;10.20;;;;;;;;;;5092041;28;20020;-64
2021/05/19 09:48:48;;;;;;;10.13;9.23;;;;;;;;;;5092494;28;20016;-64
2021/05/19 09:51:26;;;;;;;9.27;8.13;;;;;;;;;;5112691;28;20028;-64
2021/05/19 09:53:51;;;;;;;10.77;9.85;;;;;;;;;;5089711;28;20030;-64
2021/05/19 09:56:16;;;;;;;11.07;10.15;;;;;;;;;;5097553;28;20525;-64
2021/05/19 09:58:43;;;;;;;12.07;10.98;;;;;;;;;;5103351;28;20103;-64
2021/05/19 10:01:08;;;;;;;14.02;12.40;;;;;;;;;;5111935;28;20026;-64
2021/05/19 10:03:34;;;;;;;11.52;10.48;;;;;;;;;;5112254;28;20015;-65
2021/05/19 10:08:31;;;;;;;10.40;9.40;;;;;;;;;;5110250;28;20027;-65
2021/05/19 10:11:01;;;;;;;8.43;7.72;;;;;;;;;;5111720;28;20027;-64
2021/05/19 10:13:28;;;;;;;8.98;8.18;;;;;;;;;;5113726;28;20023;-65
2021/05/19 10:15:55;;;;;;;8.85;8.15;;;;;;;;;;5113560;28;20047;-65
2021/05/19 10:18:22;;;;;;;9.30;8.50;;;;;;;;;;5116194;28;20043;-65
2021/05/19 10:20:52;;;;;;;9.43;8.63;;;;;;;;;;5110520;28;20016;-64
2021/05/19 10:23:32;;;;;;;7.72;7.03;;;;;;;;;;5116563;28;20016;-65
2021/05/19 10:26:07;;;;;;;9.65;8.75;;;;;;;;;;5111250;28;20073;-65
2021/05/19 10:28:39;;;;;;;8.20;7.50;;;;;;;;;;5112832;28;20019;-64
2021/05/19 10:31:20;;;;;;;8.98;8.27;;;;;;;;;;5109243;28;20403;-64
2021/05/19 10:33:46;;;;;;;9.00;8.20;;;;;;;;;;5097695;28;20027;-64
2021/05/19 10:36:23;;;;;;;7.47;6.88;;;;;;;;;;5115128;28;20344;-64
2021/05/19 10:39:11;;;;;;;7.25;6.65;;;;;;;;;;5097448;28;20024;-64
2021/05/19 10:41:36;;;;;;;7.38;6.78;;;;;;;;;;5095396;28;20032;-64
2021/05/19 10:44:05;;;;;;;7.80;7.10;;;;;;;;;;5102066;28;20757;-64
2021/05/19 10:46:50;;;;;;;8.15;7.53;;;;;;;;;;5112576;28;20020;-64
2021/05/19 10:49:18;;;;;;;8.00;7.30;;;;;;;;;;5095622;28;20047;-64
2021/05/19 10:51:57;;;;;;;7.13;6.53;;;;;;;;;;5112847;28;20034;-64
2021/05/19 10:57:30;;;;;;;7.72;6.97;;;;;;;;;;5116028;28;20430;-64
2021/05/19 11:02:56;;;;;;;8.23;7.43;;;;;;;;;;5115321;27;20077;-65
2021/05/19 11:05:23;;;;;;;7.97;7.30;;;;;;;;;;5092276;28;20422;-64
2021/05/19 11:08:11;;;;;;;8.13;7.53;;;;;;;;;;5093808;28;20115;-65
2021/05/19 11:10:37;;;;;;;8.43;7.72;;;;;;;;;;5093634;28;20024;-64
2021/05/19 11:13:03;;;;;;;8.18;7.50;;;;;;;;;;5104254;28;20020;-64
2021/05/19 11:20:52;;;;;;;8.63;7.82;;;;;;;;;;5102151;28;20036;-65
2021/05/19 11:23:18;;;;;;;7.55;6.95;;;;;;;;;;5101517;28;20108;-65
2021/05/19 11:25:44;;;;;;;8.18;7.38;;;;;;;;;;5110927;28;20051;-64
2021/05/19 11:28:09;;;;;;;7.47;6.88;;;;;;;;;;5113965;28;20024;-64
2021/05/19 11:30:35;;;;;;;7.78;7.10;;;;;;;;;;5105731;28;20043;-65
2021/05/19 11:33:08;;;;;;;7.18;6.47;;;;;;;;;;5115253;28;20091;-65
2021/05/19 11:35:33;;;;;;;4.80;4.47;;;;;;;;;;5101400;28;20048;-65
2021/05/19 11:38:00;;;;;;;3.58;3.28;;;;;;;;;;5095260;28;20424;-65
2021/05/19 11:40:42;;;;;;;3.60;2.92;;;;;;;;;;5105442;28;20027;-65
2021/05/19 11:43:08;;;;;;;9.73;4.70;;;;;;;;;;5097630;28;20024;-65
2021/05/19 11:45:33;;;;;;;4.78;4.28;;;;;;;;;;5091452;28;20018;-66
2021/05/19 11:47:59;;;;;;;5.18;4.68;;;;;;;;;;5110528;28;20020;-66
2021/05/19 11:50:25;;;;;;;4.88;4.38;;;;;;;;;;5097704;28;20471;-65
2021/05/19 11:52:54;;;;;;;5.10;4.70;;;;;;;;;;5105245;28;20422;-64
2021/05/19 11:55:22;;;;;;;4.95;4.45;;;;;;;;;;5110468;28;20031;-63
2021/05/19 11:57:48;;;;;;;4.47;4.10;;;;;;;;;;5114348;28;20107;-64
2021/05/19 12:00:13;;;;;;;5.70;4.95;;;;;;;;;;5100585;28;20055;-64
2021/05/19 12:02:51;;;;;;;4.28;3.92;;;;;;;;;;5096548;28;20535;-64
2021/05/19 12:05:17;;;;;;;4.85;4.45;;;;;;;;;;5111344;28;20185;-65
2021/05/19 12:07:42;;;;;;;5.40;4.55;;;;;;;;;;5114391;28;20015;-65
2021/05/19 12:10:07;;;;;;;4.93;4.18;;;;;;;;;;5104192;28;20041;-64
2021/05/19 12:12:33;;;;;;;4.72;4.32;;;;;;;;;;5094115;28;20459;-64
2021/05/19 12:14:59;;;;;;;5.30;4.07;;;;;;;;;;5091092;28;20024;-64
2021/05/19 12:17:25;;;;;;;5.68;4.20;;;;;;;;;;5093929;28;20020;-64
2021/05/19 12:19:50;;;;;;;2.80;2.60;;;;;;;;;;5093967;28;20025;-64
2021/05/19 12:22:18;;;;;;;3.75;3.47;;;;;;;;;;5105425;28;20035;-64
2021/05/19 12:24:44;;;;;;;3.35;3.10;;;;;;;;;;5090569;28;20486;-63
2021/05/19 12:27:10;;;;;;;3.30;3.00;;;;;;;;;;5093862;28;20024;-63
2021/05/19 12:29:37;;;;;;;3.03;2.83;;;;;;;;;;5098721;28;20432;-63
2021/05/19 12:32:06;;;;;;;3.05;2.85;;;;;;;;;;5109094;28;20114;-63
2021/05/19 12:34:33;;;;;;;4.38;3.47;;;;;;;;;;5091379;28;20115;-63
2021/05/19 12:36:59;;;;;;;3.58;3.38;;;;;;;;;;5094064;28;20516;-63
2021/05/19 12:39:24;;;;;;;3.50;3.20;;;;;;;;;;5093114;28;20028;-63
2021/05/19 12:41:52;;;;;;;3.28;3.05;;;;;;;;;;5106491;28;20027;-64
2021/05/19 12:44:18;;;;;;;2.83;2.35;;;;;;;;;;5108745;28;20019;-63
2021/05/19 12:47:00;;;;;;;2.92;2.70;;;;;;;;;;5113650;28;20018;-63
2021/05/19 12:49:25;;;;;;;2.65;2.55;;;;;;;;;;5113089;28;20539;-63
2021/05/19 12:51:55;;;;;;;2.63;2.28;;;;;;;;;;5096338;28;20032;-63
2021/05/19 12:54:23;;;;;;;1.98;1.85;;;;;;;;;;5094036;28;20037;-64
2021/05/19 12:56:58;;;;;;;2.30;2.17;;;;;;;;;;5093016;28;20104;-63
2021/05/19 12:59:24;;;;;;;2.05;1.15;;;;;;;;;;5094145;28;20035;-63
2021/05/19 13:01:49;;;;;;;1.73;1.63;;;;;;;;;;5113094;28;20012;-63
2021/05/19 13:04:15;;;;;;;1.77;1.70;;;;;;;;;;5110309;28;20582;-64
2021/05/19 13:06:41;;;;;;;1.58;1.48;;;;;;;;;;5113304;28;20015;-64
2021/05/19 13:09:07;;;;;;;1.33;1.27;;;;;;;;;;5095844;28;20102;-64
2021/05/19 13:11:34;;;;;;;1.00;1.00;;;;;;;;;;5109954;28;20539;-62
2021/05/19 13:14:01;;;;;;;1.10;1.00;;;;;;;;;;5096268;28;20081;-65
2021/05/19 13:16:29;;;;;;;1.20;1.10;;;;;;;;;;5110849;28;20030;-65
2021/05/19 13:21:28;;;;;;;1.30;1.20;;;;;;;;;;5096081;28;20032;-67
2021/05/19 13:23:53;;;;;;;1.42;1.13;;;;;;;;;;5094703;28;20104;-65
2021/05/19 13:26:22;;;;;;;1.42;1.25;;;;;;;;;;5092171;28;20099;-65
2021/05/19 13:28:49;;;;;;;1.10;1.10;;;;;;;;;;5098076;28;20477;-66
2021/05/19 13:31:16;;;;;;;2.08;1.52;;;;;;;;;;5103419;28;20055;-66
2021/05/19 13:33:55;;;;;;;2.58;1.77;;;;;;;;;;5094954;28;20020;-66
2021/05/19 13:38:49;;;;;;;2.30;1.58;;;;;;;;;;5092401;28;20484;-67
2021/05/19 13:41:16;;;;;;;1.67;1.33;;;;;;;;;;5100592;28;20031;-67
2021/05/19 13:43:41;;;;;;;2.30;1.00;;;;;;;;;;5111655;28;20027;-67
2021/05/19 13:46:06;;;;;;;1.00;1.00;;;;;;;;;;5110469;28;20008;-68
2021/05/19 13:48:32;;;;;;;1.20;1.10;;;;;;;;;;5097915;28;20056;-68
2021/05/19 13:50:57;;;;;;;1.48;1.38;;;;;;;;;;5093289;28;20028;-68
2021/05/19 13:53:23;;;;;;;1.63;1.52;;;;;;;;;;5107334;28;20051;-66
2021/05/19 13:55:48;;;;;;;2.35;2.08;;;;;;;;;;5104056;28;20455;-67
2021/05/19 13:58:13;;;;;;;3.00;2.90;;;;;;;;;;5092949;28;20074;-67
2021/05/19 14:00:39;;;;;;;2.80;2.60;;;;;;;;;;5091867;28;20016;-66
2021/05/19 14:03:04;;;;;;;3.33;3.13;;;;;;;;;;5094654;28;20276;-66
2021/05/19 14:05:29;;;;;;;3.42;3.22;;;;;;;;;;5097237;28;20007;-66
2021/05/19 14:07:55;;;;;;;3.53;3.33;;;;;;;;;;5111858;28;20490;-67
2021/05/19 14:10:26;;;;;;;2.00;1.83;;;;;;;;;;5112410;28;20048;-67
2021/05/19 14:12:57;;;;;;;1.63;1.50;;;;;;;;;;5112364;28;20019;-66
2021/05/19 14:15:32;;;;;;;1.75;1.65;;;;;;;;;;5108295;28;20022;-66
2021/05/19 14:18:32;;;;;;;1.58;1.48;;;;;;;;;;5111894;28;20478;-67
2021/05/19 14:29:09;;;;;;;0.80;0.50;;;;;;;;;;5097578;28;20144;-65
2021/05/19 14:31:34;;;;;;;0.70;0.70;;;;;;;;;;5091717;28;20024;-65
2021/05/19 14:33:59;;;;;;;0.60;0.60;;;;;;;;;;5088580;28;20461;-66
2021/05/19 15:00:15;;;;;;;0.90;0.30;;;;;;;;;;5104293;28;20142;-66
2021/05/19 15:02:42;;;;;;;0.30;0.30;;;;;;;;;;5093574;28;20016;-66
2021/05/19 15:05:09;;;;;;;1.75;0.50;;;;;;;;;;5099807;28;20020;-66
2021/05/19 15:07:34;;;;;;;1.23;0.40;;;;;;;;;;5109764;28;20023;-67
2021/05/19 15:09:59;;;;;;;0.40;0.40;;;;;;;;;;5115277;28;20015;-66
2021/05/19 15:12:24;;;;;;;0.50;0.40;;;;;;;;;;5105071;28;20059;-66
2021/05/19 15:14:50;;;;;;;0.80;0.30;;;;;;;;;;5092078;28;20375;-66
2021/05/19 15:17:15;;;;;;;0.30;0.30;;;;;;;;;;5107388;28;20020;-66
2021/05/19 15:19:40;;;;;;;1.60;0.30;;;;;;;;;;5096352;28;20266;-66
2021/05/19 15:22:05;;;;;;;0.30;0.30;;;;;;;;;;5094935;28;20028;-67
2021/05/19 15:24:31;;;;;;;1.00;0.30;;;;;;;;;;5105174;28;20753;-67
2021/05/19 15:26:56;;;;;;;0.33;0.20;;;;;;;;;;5094554;28;20334;-67